createdAt,value
2018-03-17T00:00:16.968Z,0.98
2018-03-17T00:01:17.017Z,1.05
2018-03-17T00:02:16.297Z,0.98
2018-03-17T00:03:16.571Z,0.98
2018-03-17T00:04:16.855Z,0.98
2018-03-17T00:05:17.122Z,0.98
2018-03-17T00:06:16.398Z,1.05
2018-03-17T00:07:16.697Z,0.98
2018-03-17T00:08:16.986Z,0.98
2018-03-17T00:09:16.264Z,0.98
2018-03-17T00:10:16.550Z,0.98
2018-03-17T00:11:16.588Z,0.98
2018-03-17T00:12:16.905Z,0.98
2018-03-17T00:13:17.175Z,0.98
2018-03-17T00:14:16.441Z,0.98
2018-03-17T00:15:16.735Z,0.98
2018-03-17T00:16:17.001Z,0.98
2018-03-17T00:17:16.274Z,0.92
2018-03-17T00:18:16.542Z,0.86
2018-03-17T00:19:16.816Z,0.86
2018-03-17T00:20:17.107Z,0.92
2018-03-17T00:21:17.157Z,0.86
2018-03-17T00:22:16.423Z,0.86
2018-03-17T00:23:16.685Z,0.86
2018-03-17T00:24:16.954Z,0.86
2018-03-17T00:25:16.283Z,0.86
2018-03-17T00:26:16.573Z,0.92
2018-03-17T00:27:16.843Z,0.86
2018-03-17T00:28:17.120Z,0.92
2018-03-17T00:29:16.394Z,0.92
2018-03-17T00:30:16.676Z,0.98
2018-03-17T00:31:16.716Z,0.98
2018-03-17T00:32:16.992Z,0.98
2018-03-17T00:33:16.357Z,0.98
2018-03-17T00:34:16.643Z,1.05
2018-03-17T00:35:16.918Z,0.98
2018-03-17T00:36:17.192Z,0.92
2018-03-17T00:37:16.460Z,0.92
2018-03-17T00:38:16.722Z,0.92
2018-03-17T00:39:17.015Z,0.92
2018-03-17T00:40:16.293Z,0.86
2018-03-17T00:41:16.339Z,0.86
2018-03-17T00:42:16.636Z,0.86
2018-03-17T00:43:16.902Z,0.80
2018-03-17T00:44:17.169Z,0.86
2018-03-17T00:45:16.439Z,0.86
2018-03-17T00:46:16.714Z,0.80
2018-03-17T00:47:16.983Z,0.73
2018-03-17T00:48:16.261Z,0.73
2018-03-17T00:49:16.531Z,0.80
2018-03-17T00:50:16.815Z,0.73
2018-03-17T00:51:16.858Z,0.80
2018-03-17T00:52:17.157Z,0.80
2018-03-17T00:53:16.493Z,0.80
2018-03-17T00:54:16.765Z,0.80
2018-03-17T00:55:17.033Z,0.80
2018-03-17T00:56:16.321Z,0.73
2018-03-17T00:57:16.603Z,0.73
2018-03-17T00:58:16.872Z,0.73
2018-03-17T00:59:17.149Z,0.73
2018-03-17T01:00:16.428Z,0.73
2018-03-17T01:01:16.465Z,0.73
2018-03-17T01:02:16.733Z,0.80
2018-03-17T01:03:17.007Z,0.80
2018-03-17T01:04:16.274Z,0.73
2018-03-17T01:05:16.558Z,0.67
2018-03-17T01:06:16.828Z,0.67
2018-03-17T01:07:17.529Z,0.67
2018-03-17T01:08:16.798Z,0.61
2018-03-17T01:09:17.066Z,0.61
2018-03-17T01:10:16.357Z,0.48
2018-03-17T01:11:16.390Z,0.55
2018-03-17T01:12:16.666Z,0.55
2018-03-17T01:13:16.942Z,0.55
2018-03-17T01:14:16.212Z,0.55
2018-03-17T01:15:16.488Z,0.48
2018-03-17T01:16:16.766Z,0.48
2018-03-17T01:17:17.035Z,0.48
2018-03-17T01:18:16.334Z,0.48
2018-03-17T01:19:16.609Z,0.48
2018-03-17T01:20:16.892Z,0.48
2018-03-17T01:21:16.927Z,0.55
2018-03-17T01:22:17.197Z,0.55
2018-03-17T01:23:16.471Z,0.55
2018-03-17T01:24:16.749Z,0.48
2018-03-17T01:25:17.025Z,0.42
2018-03-17T01:26:16.294Z,0.42
2018-03-17T01:27:16.567Z,0.48
2018-03-17T01:28:16.844Z,0.48
2018-03-17T01:29:17.120Z,0.48
2018-03-17T01:30:16.413Z,0.42
2018-03-17T01:31:16.436Z,0.42
2018-03-17T01:32:16.707Z,0.36
2018-03-17T01:33:17.653Z,0.36
2018-03-17T01:34:16.924Z,0.36
2018-03-17T01:35:17.203Z,0.36
2018-03-17T01:36:16.495Z,0.36
2018-03-17T01:37:16.764Z,0.36
2018-03-17T01:38:17.036Z,0.42
2018-03-17T01:39:16.614Z,0.36
2018-03-17T01:40:16.883Z,0.36
2018-03-17T01:41:16.941Z,0.36
2018-03-17T01:42:16.214Z,0.30
2018-03-17T01:43:16.493Z,0.30
2018-03-17T01:44:16.771Z,0.30
2018-03-17T01:45:17.040Z,0.23
2018-03-17T01:46:16.355Z,0.23
2018-03-17T01:47:16.658Z,0.23
2018-03-17T01:48:16.933Z,0.23
2018-03-17T01:49:17.567Z,0.23
2018-03-17T01:50:16.842Z,0.30
2018-03-17T01:51:16.881Z,0.17
2018-03-17T01:52:17.150Z,0.17
2018-03-17T01:53:16.414Z,0.17
2018-03-17T01:54:16.699Z,0.17
2018-03-17T01:55:16.977Z,0.17
2018-03-17T01:56:16.288Z,0.17
2018-03-17T01:57:16.552Z,0.17
2018-03-17T01:58:16.827Z,0.17
2018-03-17T01:59:17.301Z,0.17
2018-03-17T02:00:16.569Z,0.17
2018-03-17T02:01:16.617Z,0.17
2018-03-17T02:02:16.884Z,0.11
2018-03-17T02:03:17.169Z,0.11
2018-03-17T02:04:16.452Z,0.11
2018-03-17T02:05:16.883Z,0.11
2018-03-17T02:06:17.161Z,0.11
2018-03-17T02:07:16.434Z,0.05
2018-03-17T02:08:16.710Z,0.11
2018-03-17T02:09:16.983Z,0.05
2018-03-17T02:10:16.263Z,0.11
2018-03-17T02:11:16.290Z,0.05
2018-03-17T02:12:16.549Z,0.05
2018-03-17T02:13:16.814Z,-0.02
2018-03-17T02:14:17.093Z,-0.02
2018-03-17T02:15:16.355Z,-0.02
2018-03-17T02:16:16.626Z,-0.02
2018-03-17T02:17:16.906Z,0.05
2018-03-17T02:18:17.176Z,-0.02
2018-03-17T02:19:16.453Z,-0.08
2018-03-17T02:20:16.725Z,-0.02
2018-03-17T02:21:16.783Z,0.05
2018-03-17T02:22:17.089Z,-0.02
2018-03-17T02:23:16.402Z,-0.02
2018-03-17T02:24:16.682Z,-0.08
2018-03-17T02:25:16.957Z,-0.02
2018-03-17T02:26:16.232Z,-0.02
2018-03-17T02:27:16.503Z,-0.02
2018-03-17T02:28:16.770Z,-0.02
2018-03-17T02:29:17.042Z,0.05
2018-03-17T02:30:16.330Z,-0.02
2018-03-17T02:31:16.659Z,-0.08
2018-03-17T02:32:16.943Z,-0.14
2018-03-17T02:33:16.207Z,-0.14
2018-03-17T02:34:16.496Z,-0.14
2018-03-17T02:35:16.767Z,-0.14
2018-03-17T02:36:17.040Z,-0.14
2018-03-17T02:37:16.334Z,-0.14
2018-03-17T02:38:16.605Z,-0.27
2018-03-17T02:39:16.881Z,-0.20
2018-03-17T02:40:17.171Z,-0.20
2018-03-17T02:41:16.233Z,-0.20
2018-03-17T02:42:16.532Z,-0.14
2018-03-17T02:43:16.801Z,-0.20
2018-03-17T02:44:17.081Z,-0.20
2018-03-17T02:45:16.458Z,-0.27
2018-03-17T02:46:16.737Z,-0.27
2018-03-17T02:47:17.025Z,-0.27
2018-03-17T02:48:16.404Z,-0.33
2018-03-17T02:49:16.713Z,-0.39
2018-03-17T02:50:17.008Z,-0.33
2018-03-17T02:51:17.039Z,-0.39
2018-03-17T02:52:16.409Z,-0.39
2018-03-17T02:53:16.695Z,-0.39
2018-03-17T02:54:16.970Z,-0.27
2018-03-17T02:55:16.250Z,-0.33
2018-03-17T02:56:16.524Z,-0.33
2018-03-17T02:57:16.810Z,-0.39
2018-03-17T02:58:17.092Z,-0.39
2018-03-17T02:59:16.366Z,-0.45
2018-03-17T03:00:16.644Z,-0.39
2018-03-17T03:01:16.705Z,-0.39
2018-03-17T03:02:16.969Z,-0.45
2018-03-17T03:03:16.245Z,-0.45
2018-03-17T03:04:16.526Z,-0.45
2018-03-17T03:05:16.812Z,-0.45
2018-03-17T03:06:17.098Z,-0.39
2018-03-17T03:07:16.405Z,-0.45
2018-03-17T03:08:16.693Z,-0.45
2018-03-17T03:09:16.967Z,-0.45
2018-03-17T03:10:16.240Z,-0.45
2018-03-17T03:11:16.279Z,-0.45
2018-03-17T03:12:16.570Z,-0.45
2018-03-17T03:13:16.842Z,-0.45
2018-03-17T03:14:17.479Z,-0.45
2018-03-17T03:15:16.773Z,-0.45
2018-03-17T03:16:17.059Z,-0.45
2018-03-17T03:17:16.337Z,-0.45
2018-03-17T03:18:16.613Z,-0.45
2018-03-17T03:19:16.893Z,-0.52
2018-03-17T03:20:17.161Z,-0.45
2018-03-17T03:21:16.209Z,-0.45
2018-03-17T03:22:16.639Z,-0.45
2018-03-17T03:23:16.910Z,-0.45
2018-03-17T03:24:17.194Z,-0.52
2018-03-17T03:25:16.470Z,-0.52
2018-03-17T03:26:16.826Z,-0.52
2018-03-17T03:27:17.098Z,-0.45
2018-03-17T03:28:16.392Z,-0.45
2018-03-17T03:29:16.667Z,-0.52
2018-03-17T03:30:16.978Z,-0.52
2018-03-17T03:31:17.006Z,-0.52
2018-03-17T03:32:16.288Z,-0.52
2018-03-17T03:33:16.550Z,-0.52
2018-03-17T03:34:16.832Z,-0.52
2018-03-17T03:35:17.115Z,-0.45
2018-03-17T03:36:16.382Z,-0.45
2018-03-17T03:37:16.650Z,-0.45
2018-03-17T03:38:16.927Z,-0.52
2018-03-17T03:39:17.219Z,-0.45
2018-03-17T03:40:16.500Z,-0.45
2018-03-17T03:41:16.557Z,-0.45
2018-03-17T03:42:16.827Z,-0.45
2018-03-17T03:43:17.093Z,-0.45
2018-03-17T03:44:16.424Z,-0.52
2018-03-17T03:45:16.709Z,-0.45
2018-03-17T03:46:16.990Z,-0.39
2018-03-17T03:47:16.270Z,-0.39
2018-03-17T03:48:16.546Z,-0.39
2018-03-17T03:49:16.815Z,-0.39
2018-03-17T03:50:17.095Z,-0.39
2018-03-17T03:51:17.148Z,-0.45
2018-03-17T03:52:16.417Z,-0.45
2018-03-17T03:53:16.693Z,-0.39
2018-03-17T03:54:16.972Z,-0.39
2018-03-17T03:55:16.271Z,-0.39
2018-03-17T03:56:16.567Z,-0.39
2018-03-17T03:57:16.835Z,-0.39
2018-03-17T03:58:17.112Z,-0.39
2018-03-17T03:59:16.380Z,-0.33
2018-03-17T04:00:16.672Z,-0.33
2018-03-17T04:01:16.711Z,-0.33
2018-03-17T04:02:16.977Z,-0.33
2018-03-17T04:03:16.315Z,-0.27
2018-03-17T04:04:16.575Z,-0.33
2018-03-17T04:05:16.840Z,-0.33
2018-03-17T04:06:17.113Z,-0.33
2018-03-17T04:07:16.384Z,-0.27
2018-03-17T04:08:16.661Z,-0.27
2018-03-17T04:09:16.934Z,-0.27
2018-03-17T04:10:16.214Z,-0.20
2018-03-17T04:11:16.330Z,-0.27
2018-03-17T04:12:16.609Z,-0.20
2018-03-17T04:13:16.879Z,-0.20
2018-03-17T04:14:17.144Z,-0.14
2018-03-17T04:15:16.447Z,-0.20
2018-03-17T04:16:16.733Z,-0.20
2018-03-17T04:17:17.012Z,-0.14
2018-03-17T04:18:16.274Z,-0.14
2018-03-17T04:19:16.560Z,-0.02
2018-03-17T04:20:16.841Z,-0.14
2018-03-17T04:21:16.880Z,-0.14
2018-03-17T04:22:17.173Z,-0.14
2018-03-17T04:23:16.447Z,-0.14
2018-03-17T04:24:16.761Z,-0.14
2018-03-17T04:25:17.030Z,-0.14
2018-03-17T04:26:16.301Z,-0.14
2018-03-17T04:27:16.940Z,-0.14
2018-03-17T04:28:16.208Z,-0.14
2018-03-17T04:29:16.481Z,-0.14
2018-03-17T04:30:16.752Z,-0.08
2018-03-17T04:31:16.813Z,-0.14
2018-03-17T04:32:17.087Z,-0.14
2018-03-17T04:33:16.361Z,-0.14
2018-03-17T04:34:16.639Z,-0.14
2018-03-17T04:35:16.904Z,-0.14
2018-03-17T04:36:17.196Z,-0.14
2018-03-17T04:37:16.550Z,-0.14
2018-03-17T04:38:16.833Z,-0.14
2018-03-17T04:39:17.108Z,-0.20
2018-03-17T04:40:16.382Z,-0.20
2018-03-17T04:41:16.427Z,-0.14
2018-03-17T04:42:16.751Z,-0.20
2018-03-17T04:43:17.031Z,-0.27
2018-03-17T04:44:16.299Z,-0.33
2018-03-17T04:45:16.570Z,-0.33
2018-03-17T04:46:16.840Z,-0.27
2018-03-17T04:47:17.320Z,-0.33
2018-03-17T04:48:16.592Z,-0.33
2018-03-17T04:49:16.869Z,-0.33
2018-03-17T04:50:17.142Z,-0.33
2018-03-17T04:51:17.233Z,-0.33
2018-03-17T04:52:16.536Z,-0.39
2018-03-17T04:53:16.810Z,-0.39
2018-03-17T04:54:17.073Z,-0.39
2018-03-17T04:55:16.435Z,-0.39
2018-03-17T04:56:16.731Z,-0.45
2018-03-17T04:57:16.999Z,-0.39
2018-03-17T04:58:16.288Z,-0.45
2018-03-17T04:59:16.561Z,-0.45
2018-03-17T05:00:16.867Z,-0.52
2018-03-17T05:01:16.875Z,-0.52
2018-03-17T05:02:17.467Z,-0.58
2018-03-17T05:03:16.742Z,-0.52
2018-03-17T05:04:17.007Z,-0.52
2018-03-17T05:05:16.288Z,-0.52
2018-03-17T05:06:16.626Z,-0.52
2018-03-17T05:07:16.896Z,-0.52
2018-03-17T05:08:17.179Z,-0.58
2018-03-17T05:09:16.452Z,-0.58
2018-03-17T05:10:16.725Z,-0.58
2018-03-17T05:11:16.767Z,-0.64
2018-03-17T05:12:17.037Z,-0.58
2018-03-17T05:13:16.421Z,-0.64
2018-03-17T05:14:16.720Z,-0.70
2018-03-17T05:15:17.000Z,-0.70
2018-03-17T05:16:16.275Z,-0.70
2018-03-17T05:17:16.545Z,-0.64
2018-03-17T05:18:16.819Z,-0.70
2018-03-17T05:19:17.096Z,-0.64
2018-03-17T05:20:16.400Z,-0.64
2018-03-17T05:21:16.435Z,-0.64
2018-03-17T05:22:16.712Z,-0.64
2018-03-17T05:23:16.982Z,-0.70
2018-03-17T05:24:16.254Z,-0.70
2018-03-17T05:25:16.539Z,-0.70
2018-03-17T05:26:16.820Z,-0.70
2018-03-17T05:27:17.097Z,-0.64
2018-03-17T05:28:16.373Z,-0.70
2018-03-17T05:29:16.635Z,-0.77
2018-03-17T05:30:16.910Z,-0.77
2018-03-17T05:31:16.952Z,-0.77
2018-03-17T05:32:16.215Z,-0.77
2018-03-17T05:33:16.531Z,-0.77
2018-03-17T05:34:16.853Z,-0.70
2018-03-17T05:35:17.130Z,-0.77
2018-03-17T05:36:16.405Z,-0.70
2018-03-17T05:37:16.715Z,-0.70
2018-03-17T05:38:17.010Z,-0.70
2018-03-17T05:39:16.289Z,-0.70
2018-03-17T05:40:16.568Z,-0.70
2018-03-17T05:41:16.610Z,-0.64
2018-03-17T05:42:16.899Z,-0.70
2018-03-17T05:43:17.194Z,-0.70
2018-03-17T05:44:16.488Z,-0.77
2018-03-17T05:45:16.765Z,-0.70
2018-03-17T05:46:17.036Z,-0.77
2018-03-17T05:47:16.319Z,-0.70
2018-03-17T05:48:16.587Z,-0.70
2018-03-17T05:49:16.854Z,-0.70
2018-03-17T05:50:17.135Z,-0.70
2018-03-17T05:51:17.204Z,-0.64
2018-03-17T05:52:16.476Z,-0.64
2018-03-17T05:53:17.039Z,-0.64
2018-03-17T05:54:16.303Z,-0.64
2018-03-17T05:55:16.576Z,-0.58
2018-03-17T05:56:16.862Z,-0.64
2018-03-17T05:57:17.124Z,-0.64
2018-03-17T05:58:16.398Z,-0.70
2018-03-17T05:59:16.681Z,-0.70
2018-03-17T06:00:17.085Z,-0.64
2018-03-17T06:01:17.139Z,-0.58
2018-03-17T06:02:16.417Z,-0.58
2018-03-17T06:03:16.702Z,-0.58
2018-03-17T06:04:17.033Z,-0.64
2018-03-17T06:05:16.334Z,-0.70
2018-03-17T06:06:16.654Z,-0.70
2018-03-17T06:07:16.937Z,-0.70
2018-03-17T06:08:16.228Z,-0.58
2018-03-17T06:09:16.496Z,-0.64
2018-03-17T06:10:16.781Z,-0.64
2018-03-17T06:11:16.818Z,-0.58
2018-03-17T06:12:17.098Z,-0.58
2018-03-17T06:13:16.365Z,-0.58
2018-03-17T06:14:16.653Z,-0.58
2018-03-17T06:15:16.978Z,-0.58
2018-03-17T06:16:16.253Z,-0.58
2018-03-17T06:17:16.526Z,-0.58
2018-03-17T06:18:16.798Z,-0.58
2018-03-17T06:19:17.073Z,-0.58
2018-03-17T06:20:16.354Z,-0.58
2018-03-17T06:21:16.390Z,-0.58
2018-03-17T06:22:16.658Z,-0.52
2018-03-17T06:23:16.974Z,-0.52
2018-03-17T06:24:16.566Z,-0.52
2018-03-17T06:25:16.902Z,-0.58
2018-03-17T06:26:16.220Z,-0.52
2018-03-17T06:27:16.492Z,-0.52
2018-03-17T06:28:16.758Z,-0.45
2018-03-17T06:29:17.026Z,-0.45
2018-03-17T06:30:16.296Z,-0.45
2018-03-17T06:31:16.319Z,-0.45
2018-03-17T06:32:16.586Z,-0.45
2018-03-17T06:33:16.863Z,-0.45
2018-03-17T06:34:17.159Z,-0.45
2018-03-17T06:35:16.444Z,-0.39
2018-03-17T06:36:16.729Z,-0.39
2018-03-17T06:37:17.014Z,-0.45
2018-03-17T06:38:16.289Z,-0.39
2018-03-17T06:39:16.582Z,-0.33
2018-03-17T06:40:16.865Z,-0.27
2018-03-17T06:41:16.905Z,-0.33
2018-03-17T06:42:17.189Z,-0.27
2018-03-17T06:43:16.454Z,-0.20
2018-03-17T06:44:16.724Z,-0.20
2018-03-17T06:45:16.996Z,-0.14
2018-03-17T06:46:16.272Z,-0.14
2018-03-17T06:47:16.540Z,-0.08
2018-03-17T06:48:16.814Z,-0.08
2018-03-17T06:49:17.077Z,-0.02
2018-03-17T06:50:16.354Z,-0.08
2018-03-17T06:51:16.390Z,-0.08
2018-03-17T06:52:16.658Z,-0.02
2018-03-17T06:53:16.939Z,-0.02
2018-03-17T06:54:16.213Z,-0.08
2018-03-17T06:55:16.507Z,-0.08
2018-03-17T06:56:16.878Z,-0.02
2018-03-17T06:57:17.141Z,-0.02
2018-03-17T06:58:16.403Z,0.05
2018-03-17T06:59:16.690Z,0.05
2018-03-17T07:00:17.062Z,0.11
2018-03-17T07:01:17.102Z,0.11
2018-03-17T07:02:16.370Z,0.17
2018-03-17T07:03:16.648Z,0.11
2018-03-17T07:04:17.010Z,0.05
2018-03-17T07:05:16.293Z,0.11
2018-03-17T07:06:16.568Z,0.05
2018-03-17T07:07:16.925Z,0.05
2018-03-17T07:08:16.209Z,0.05
2018-03-17T07:09:16.476Z,0.11
2018-03-17T07:10:16.824Z,0.11
2018-03-17T07:11:16.802Z,0.05
2018-03-17T07:12:17.129Z,0.05
2018-03-17T07:13:16.454Z,0.05
2018-03-17T07:14:16.755Z,-0.02
2018-03-17T07:15:17.043Z,0.05
2018-03-17T07:16:16.319Z,0.11
2018-03-17T07:17:16.595Z,0.05
2018-03-17T07:18:16.865Z,0.05
2018-03-17T07:19:17.138Z,0.17
2018-03-17T07:20:16.425Z,0.11
2018-03-17T07:21:16.462Z,0.11
2018-03-17T07:22:16.781Z,0.11
2018-03-17T07:23:17.050Z,0.17
2018-03-17T07:24:16.330Z,0.11
2018-03-17T07:25:16.661Z,0.05
2018-03-17T07:26:17.197Z,0.05
2018-03-17T07:27:16.478Z,0.05
2018-03-17T07:28:16.761Z,0.05
2018-03-17T07:29:17.057Z,-0.02
2018-03-17T07:30:16.338Z,0.05
2018-03-17T07:31:16.386Z,0.05
2018-03-17T07:32:16.684Z,-0.02
2018-03-17T07:33:17.029Z,0.05
2018-03-17T07:34:16.308Z,0.11
2018-03-17T07:35:16.587Z,0.11
2018-03-17T07:36:16.850Z,0.11
2018-03-17T07:37:17.114Z,0.05
2018-03-17T07:38:16.381Z,0.05
2018-03-17T07:39:16.657Z,0.05
2018-03-17T07:40:16.932Z,0.05
2018-03-17T07:41:16.962Z,-0.02
2018-03-17T07:42:16.231Z,0.05
2018-03-17T07:43:16.501Z,0.11
2018-03-17T07:44:16.776Z,0.11
2018-03-17T07:45:17.090Z,0.11
2018-03-17T07:46:16.516Z,0.11
2018-03-17T07:47:16.791Z,0.05
2018-03-17T07:48:17.122Z,0.05
2018-03-17T07:49:16.394Z,0.05
2018-03-17T07:50:16.674Z,0.05
2018-03-17T07:51:16.739Z,-0.02
2018-03-17T07:52:17.039Z,0.05
2018-03-17T07:53:16.314Z,0.11
2018-03-17T07:54:16.591Z,-0.02
2018-03-17T07:55:16.871Z,-0.02
2018-03-17T07:56:17.177Z,0.11
2018-03-17T07:57:16.465Z,0.11
2018-03-17T07:58:16.762Z,0.11
2018-03-17T07:59:17.030Z,0.11
2018-03-17T08:00:16.316Z,0.05
2018-03-17T08:01:16.372Z,0.11
2018-03-17T08:02:16.646Z,0.17
2018-03-17T08:03:16.930Z,0.11
2018-03-17T08:04:17.209Z,0.11
2018-03-17T08:05:16.500Z,0.23
2018-03-17T08:06:16.804Z,0.17
2018-03-17T08:07:17.092Z,0.17
2018-03-17T08:08:16.360Z,0.17
2018-03-17T08:09:16.641Z,0.23
2018-03-17T08:10:16.920Z,0.11
2018-03-17T08:11:16.983Z,0.11
2018-03-17T08:12:16.255Z,0.05
2018-03-17T08:13:16.524Z,0.11
2018-03-17T08:14:16.801Z,0.17
2018-03-17T08:15:17.179Z,0.17
2018-03-17T08:16:16.453Z,0.17
2018-03-17T08:17:16.737Z,0.17
2018-03-17T08:18:17.076Z,0.17
2018-03-17T08:19:16.356Z,0.30
2018-03-17T08:20:16.638Z,0.36
2018-03-17T08:21:16.681Z,0.23
2018-03-17T08:22:16.965Z,0.23
2018-03-17T08:23:16.242Z,0.23
2018-03-17T08:24:16.500Z,0.17
2018-03-17T08:25:16.778Z,0.23
2018-03-17T08:26:17.401Z,0.17
2018-03-17T08:27:16.681Z,0.23
2018-03-17T08:28:16.951Z,0.23
2018-03-17T08:29:16.221Z,0.36
2018-03-17T08:30:16.499Z,0.42
2018-03-17T08:31:16.546Z,0.36
2018-03-17T08:32:17.102Z,0.42
2018-03-17T08:33:16.387Z,0.36
2018-03-17T08:34:16.689Z,0.48
2018-03-17T08:35:17.029Z,0.55
2018-03-17T08:36:16.307Z,0.55
2018-03-17T08:37:16.580Z,0.36
2018-03-17T08:38:17.007Z,0.42
2018-03-17T08:39:16.280Z,0.42
2018-03-17T08:40:16.552Z,0.50
2018-03-17T08:41:16.606Z,0.52
2018-03-17T08:42:16.870Z,0.57
2018-03-17T08:43:17.139Z,0.50
2018-03-17T08:44:16.407Z,0.48
2018-03-17T08:45:16.683Z,0.55
2018-03-17T08:46:16.952Z,0.57
2018-03-17T08:47:16.226Z,0.48
2018-03-17T08:48:16.504Z,0.56
2018-03-17T08:49:16.785Z,0.48
2018-03-17T08:50:17.077Z,0.42
2018-03-17T08:51:17.132Z,0.48
2018-03-17T08:52:16.411Z,0.48
2018-03-17T08:53:16.688Z,0.48
2018-03-17T08:54:16.963Z,0.46
2018-03-17T08:55:16.234Z,0.55
2018-03-17T08:56:16.502Z,0.60
2018-03-17T08:57:16.775Z,0.60
2018-03-17T08:58:17.041Z,0.60
2018-03-17T08:59:16.318Z,0.63
2018-03-17T09:00:16.597Z,0.66
2018-03-17T09:01:16.646Z,0.71
2018-03-17T09:02:16.970Z,0.63
2018-03-17T09:03:16.492Z,0.67
2018-03-17T09:04:16.764Z,0.73
2018-03-17T09:05:17.151Z,0.75
2018-03-17T09:06:16.423Z,0.73
2018-03-17T09:07:16.690Z,0.77
2018-03-17T09:08:16.963Z,0.64
2018-03-17T09:09:16.238Z,0.73
2018-03-17T09:10:16.517Z,0.73
2018-03-17T09:11:16.560Z,0.67
2018-03-17T09:12:16.835Z,0.70
2018-03-17T09:13:17.380Z,0.66
2018-03-17T09:14:16.651Z,0.67
2018-03-17T09:15:16.918Z,0.48
2018-03-17T09:16:17.198Z,0.50
2018-03-17T09:17:16.473Z,0.57
2018-03-17T09:18:16.761Z,0.52
2018-03-17T09:19:17.041Z,0.63
2018-03-17T09:20:16.330Z,0.63
2018-03-17T09:21:16.383Z,0.59
2018-03-17T09:22:16.645Z,0.64
2018-03-17T09:23:17.000Z,0.57
2018-03-17T09:24:16.326Z,0.57
2018-03-17T09:25:16.624Z,0.66
2018-03-17T09:26:16.895Z,0.70
2018-03-17T09:27:17.163Z,0.63
2018-03-17T09:28:16.435Z,0.59
2018-03-17T09:29:16.705Z,0.59
2018-03-17T09:30:16.983Z,0.82
2018-03-17T09:31:17.042Z,0.67
2018-03-17T09:32:16.312Z,0.74
2018-03-17T09:33:16.596Z,0.78
2018-03-17T09:34:16.867Z,0.79
2018-03-17T09:35:17.138Z,0.81
2018-03-17T09:36:16.416Z,0.69
2018-03-17T09:37:16.699Z,0.57
2018-03-17T09:38:16.965Z,0.63
2018-03-17T09:39:16.254Z,0.70
2018-03-17T09:40:16.526Z,0.62
2018-03-17T09:41:16.580Z,0.45
2018-03-17T09:42:16.940Z,0.62
2018-03-17T09:43:16.323Z,0.63
2018-03-17T09:44:16.598Z,0.57
2018-03-17T09:45:16.882Z,0.56
2018-03-17T09:46:17.160Z,0.60
2018-03-17T09:47:16.437Z,0.49
2018-03-17T09:48:16.706Z,0.57
2018-03-17T09:49:16.983Z,0.59
2018-03-17T09:50:16.264Z,0.66
2018-03-17T09:51:16.311Z,0.62
2018-03-17T09:52:16.629Z,0.55
2018-03-17T09:53:16.988Z,0.77
2018-03-17T09:54:16.387Z,0.83
2018-03-17T09:55:16.670Z,0.74
2018-03-17T09:56:16.953Z,0.90
2018-03-17T09:57:16.221Z,0.83
2018-03-17T09:58:16.534Z,0.95
2018-03-17T09:59:16.827Z,1.02
2018-03-17T10:00:17.134Z,1.04
2018-03-17T10:01:17.155Z,0.88
2018-03-17T10:02:16.426Z,1.00
2018-03-17T10:03:16.688Z,1.12
2018-03-17T10:04:16.960Z,1.26
2018-03-17T10:05:16.332Z,1.11
2018-03-17T10:06:16.598Z,1.39
2018-03-17T10:07:16.863Z,1.05
2018-03-17T10:08:17.143Z,1.23
2018-03-17T10:09:16.418Z,1.15
2018-03-17T10:10:16.687Z,1.12
2018-03-17T10:11:16.730Z,1.06
2018-03-17T10:12:16.996Z,0.81
2018-03-17T10:13:16.318Z,0.93
2018-03-17T10:14:16.599Z,0.95
2018-03-17T10:15:16.883Z,1.11
2018-03-17T10:16:17.188Z,0.79
2018-03-17T10:17:16.458Z,0.95
2018-03-17T10:18:16.734Z,1.18
2018-03-17T10:19:17.044Z,1.11
2018-03-17T10:20:16.315Z,0.82
2018-03-17T10:21:16.361Z,0.95
2018-03-17T10:22:16.634Z,0.95
2018-03-17T10:23:16.910Z,0.75
2018-03-17T10:24:17.178Z,0.93
2018-03-17T10:25:16.450Z,1.03
2018-03-17T10:26:16.726Z,0.89
2018-03-17T10:27:17.011Z,1.00
2018-03-17T10:28:16.298Z,1.07
2018-03-17T10:29:16.575Z,1.10
2018-03-17T10:30:16.864Z,1.12
2018-03-17T10:31:16.902Z,1.03
2018-03-17T10:32:17.175Z,0.96
2018-03-17T10:33:16.524Z,0.79
2018-03-17T10:34:16.795Z,0.97
2018-03-17T10:35:17.198Z,1.07
2018-03-17T10:36:16.520Z,0.83
2018-03-17T10:37:16.811Z,0.60
2018-03-17T10:38:17.379Z,0.79
2018-03-17T10:39:16.647Z,0.92
2018-03-17T10:40:16.918Z,0.96
2018-03-17T10:41:16.982Z,0.74
2018-03-17T10:42:16.301Z,0.90
2018-03-17T10:43:16.667Z,0.85
2018-03-17T10:44:17.018Z,0.64
2018-03-17T10:45:16.323Z,0.93
2018-03-17T10:46:16.604Z,1.03
2018-03-17T10:47:16.877Z,1.07
2018-03-17T10:48:17.157Z,0.88
2018-03-17T10:49:16.422Z,0.66
2018-03-17T10:50:16.706Z,0.79
2018-03-17T10:51:16.758Z,0.92
2018-03-17T10:52:17.060Z,0.92
2018-03-17T10:53:16.388Z,1.05
2018-03-17T10:54:16.676Z,1.11
2018-03-17T10:55:16.973Z,0.78
2018-03-17T10:56:16.329Z,0.86
2018-03-17T10:57:16.590Z,0.88
2018-03-17T10:58:16.862Z,0.86
2018-03-17T10:59:17.422Z,0.89
2018-03-17T11:00:16.744Z,0.86
2018-03-17T11:01:16.750Z,0.95
2018-03-17T11:02:17.025Z,0.77
2018-03-17T11:03:16.291Z,0.64
2018-03-17T11:04:16.552Z,0.95
2018-03-17T11:05:16.847Z,0.96
2018-03-17T11:06:17.259Z,0.95
2018-03-17T11:07:16.658Z,0.82
2018-03-17T11:08:16.924Z,0.80
2018-03-17T11:09:16.278Z,0.92
2018-03-17T11:10:16.560Z,0.93
2018-03-17T11:11:16.603Z,0.92
2018-03-17T11:12:16.874Z,0.81
2018-03-17T11:13:17.143Z,0.83
2018-03-17T11:14:16.416Z,0.78
2018-03-17T11:15:16.693Z,0.98
2018-03-17T11:16:16.962Z,0.90
2018-03-17T11:17:16.245Z,0.90
2018-03-17T11:18:16.525Z,0.79
2018-03-17T11:19:16.789Z,0.81
2018-03-17T11:20:17.062Z,0.64
2018-03-17T11:21:17.162Z,0.89
2018-03-17T11:22:16.468Z,0.78
2018-03-17T11:23:16.735Z,0.88
2018-03-17T11:24:17.025Z,0.62
2018-03-17T11:25:16.352Z,0.62
2018-03-17T11:26:16.628Z,0.99
2018-03-17T11:27:16.900Z,1.30
2018-03-17T11:28:17.184Z,0.97
2018-03-17T11:29:16.455Z,0.62
2018-03-17T11:30:16.734Z,0.66
2018-03-17T11:31:16.772Z,0.75
2018-03-17T11:32:17.040Z,0.78
2018-03-17T11:33:16.302Z,0.74
2018-03-17T11:34:16.575Z,0.81
2018-03-17T11:35:16.857Z,0.81
2018-03-17T11:36:17.129Z,0.70
2018-03-17T11:37:16.401Z,0.88
2018-03-17T11:38:16.664Z,0.55
2018-03-17T11:39:16.933Z,0.64
2018-03-17T11:40:17.216Z,0.77
2018-03-17T11:41:16.265Z,0.80
2018-03-17T11:42:16.531Z,0.67
2018-03-17T11:43:16.797Z,0.66
2018-03-17T11:44:17.081Z,0.48
2018-03-17T11:45:16.357Z,0.61
2018-03-17T11:46:16.642Z,0.55
2018-03-17T11:47:16.909Z,0.61
2018-03-17T11:48:17.190Z,0.67
2018-03-17T11:49:16.479Z,0.61
2018-03-17T11:50:16.758Z,0.70
2018-03-17T11:51:16.814Z,0.77
2018-03-17T11:52:17.108Z,0.60
2018-03-17T11:53:16.386Z,0.60
2018-03-17T11:54:16.666Z,0.73
2018-03-17T11:55:16.941Z,0.66
2018-03-17T11:56:16.360Z,0.57
2018-03-17T11:57:16.643Z,0.85
2018-03-17T11:58:16.919Z,0.80
2018-03-17T11:59:17.258Z,0.78
2018-03-17T12:00:16.547Z,0.49
2018-03-17T12:01:16.608Z,0.61
2018-03-17T12:02:16.885Z,0.41
2018-03-17T12:03:17.163Z,0.46
2018-03-17T12:04:16.436Z,0.59
2018-03-17T12:05:16.709Z,0.86
2018-03-17T12:06:16.976Z,0.80
2018-03-17T12:07:16.241Z,0.80
2018-03-17T12:08:16.506Z,0.53
2018-03-17T12:09:16.790Z,0.53
2018-03-17T12:10:17.091Z,0.46
2018-03-17T12:11:18.046Z,0.41
2018-03-17T12:12:16.322Z,0.42
2018-03-17T12:13:16.597Z,0.55
2018-03-17T12:14:16.868Z,0.70
2018-03-17T12:15:17.155Z,0.70
2018-03-17T12:16:16.454Z,0.55
2018-03-17T12:17:17.008Z,0.61
2018-03-17T12:18:16.288Z,0.60
2018-03-17T12:19:16.548Z,0.67
2018-03-17T12:20:16.831Z,0.73
2018-03-17T12:21:16.879Z,0.79
2018-03-17T12:22:17.152Z,0.61
2018-03-17T12:23:16.428Z,0.73
2018-03-17T12:24:16.702Z,0.67
2018-03-17T12:25:17.007Z,0.61
2018-03-17T12:26:16.354Z,0.80
2018-03-17T12:27:16.636Z,0.71
2018-03-17T12:28:16.904Z,0.85
2018-03-17T12:29:17.314Z,1.02
2018-03-17T12:30:16.628Z,0.93
2018-03-17T12:31:16.682Z,0.92
2018-03-17T12:32:16.946Z,0.74
2018-03-17T12:33:16.223Z,0.96
2018-03-17T12:34:16.500Z,0.83
2018-03-17T12:35:16.780Z,1.02
2018-03-17T12:36:17.079Z,1.06
2018-03-17T12:37:16.388Z,1.11
2018-03-17T12:38:16.659Z,1.16
2018-03-17T12:39:16.928Z,1.30
2018-03-17T12:40:21.616Z,1.49
2018-03-17T12:41:16.250Z,1.55
2018-03-17T12:42:16.517Z,1.55
2018-03-17T12:43:16.910Z,1.67
2018-03-17T12:44:17.187Z,1.15
2018-03-17T12:45:16.543Z,1.12
2018-03-17T12:46:16.815Z,1.06
2018-03-17T12:47:17.368Z,1.16
2018-03-17T12:48:16.651Z,1.10
2018-03-17T12:49:16.924Z,1.36
2018-03-17T12:50:16.209Z,1.11
2018-03-17T12:51:16.250Z,1.05
2018-03-17T12:52:16.526Z,0.97
2018-03-17T12:53:16.794Z,1.11
2018-03-17T12:54:17.123Z,0.95
2018-03-17T12:55:16.428Z,1.05
2018-03-17T12:56:16.698Z,0.98
2018-03-17T12:57:16.973Z,1.11
2018-03-17T12:58:16.247Z,1.11
2018-03-17T12:59:16.535Z,1.12
2018-03-17T13:00:16.808Z,1.12
2018-03-17T13:01:16.869Z,1.19
2018-03-17T13:02:17.150Z,1.30
2018-03-17T13:03:16.418Z,1.30
2018-03-17T13:04:16.688Z,1.23
2018-03-17T13:05:16.960Z,1.05
2018-03-17T13:06:16.225Z,0.83
2018-03-17T13:07:16.492Z,1.03
2018-03-17T13:08:16.760Z,1.18